sensor_id;sensor_type;location;lat;lon;timestamp;P1;durP1;ratioP1;P2;durP2;ratioP2
19026;SDS011;9646;52.034;5.554;2023-04-01T00:01:30;4.78;;;3.03;;
19026;SDS011;9646;52.034;5.554;2023-04-01T00:03:57;4.78;;;2.85;;
19026;SDS011;9646;52.034;5.554;2023-04-01T00:06:28;4.25;;;3.22;;
19026;SDS011;9646;52.034;5.554;2023-04-01T00:08:55;7.20;;;3.25;;
19026;SDS011;9646;52.034;5.554;2023-04-01T00:11:22;5.47;;;3.42;;
19026;SDS011;9646;52.034;5.554;2023-04-01T00:13:52;4.45;;;2.92;;
19026;SDS011;9646;52.034;5.554;2023-04-01T00:16:19;5.32;;;3.53;;
19026;SDS011;9646;52.034;5.554;2023-04-01T00:18:46;7.00;;;3.40;;
19026;SDS011;9646;52.034;5.554;2023-04-01T00:21:13;7.90;;;4.53;;
19026;SDS011;9646;52.034;5.554;2023-04-01T00:23:42;6.13;;;3.75;;
19026;SDS011;9646;52.034;5.554;2023-04-01T00:26:09;6.32;;;4.53;;
19026;SDS011;9646;52.034;5.554;2023-04-01T00:28:37;8.63;;;4.60;;
19026;SDS011;9646;52.034;5.554;2023-04-01T00:31:04;8.23;;;4.40;;
19026;SDS011;9646;52.034;5.554;2023-04-01T00:33:32;6.57;;;3.92;;
19026;SDS011;9646;52.034;5.554;2023-04-01T00:36:05;7.03;;;4.75;;
19026;SDS011;9646;52.034;5.554;2023-04-01T00:38:33;9.45;;;4.88;;
19026;SDS011;9646;52.034;5.554;2023-04-01T00:41:01;8.40;;;4.20;;
19026;SDS011;9646;52.034;5.554;2023-04-01T00:43:28;7.15;;;4.68;;
19026;SDS011;9646;52.034;5.554;2023-04-01T00:45:55;6.40;;;4.30;;
19026;SDS011;9646;52.034;5.554;2023-04-01T00:48:23;11.13;;;5.38;;
19026;SDS011;9646;52.034;5.554;2023-04-01T00:50:52;11.50;;;4.63;;
19026;SDS011;9646;52.034;5.554;2023-04-01T00:53:21;16.58;;;5.40;;
19026;SDS011;9646;52.034;5.554;2023-04-01T00:55:49;12.23;;;4.90;;
19026;SDS011;9646;52.034;5.554;2023-04-01T00:58:18;10.27;;;4.80;;
19026;SDS011;9646;52.034;5.554;2023-04-01T01:00:47;11.55;;;4.50;;
19026;SDS011;9646;52.034;5.554;2023-04-01T01:03:15;13.00;;;5.25;;
19026;SDS011;9646;52.034;5.554;2023-04-01T01:05:48;16.98;;;5.75;;
19026;SDS011;9646;52.034;5.554;2023-04-01T01:08:20;10.77;;;5.80;;
19026;SDS011;9646;52.034;5.554;2023-04-01T01:10:50;13.10;;;5.50;;
19026;SDS011;9646;52.034;5.554;2023-04-01T01:13:20;15.57;;;5.40;;
19026;SDS011;9646;52.034;5.554;2023-04-01T01:15:49;14.20;;;5.97;;
19026;SDS011;9646;52.034;5.554;2023-04-01T01:18:19;15.40;;;6.65;;
19026;SDS011;9646;52.034;5.554;2023-04-01T01:21:13;15.77;;;6.07;;
19026;SDS011;9646;52.034;5.554;2023-04-01T01:26:34;13.07;;;5.32;;
19026;SDS011;9646;52.034;5.554;2023-04-01T01:29:07;11.40;;;4.95;;
19026;SDS011;9646;52.034;5.554;2023-04-01T01:31:41;10.90;;;5.38;;
19026;SDS011;9646;52.034;5.554;2023-04-01T01:34:12;12.25;;;5.60;;
19026;SDS011;9646;52.034;5.554;2023-04-01T01:36:44;8.75;;;4.53;;
19026;SDS011;9646;52.034;5.554;2023-04-01T01:39:12;13.85;;;6.50;;
19026;SDS011;9646;52.034;5.554;2023-04-01T01:41:41;13.93;;;5.68;;
19026;SDS011;9646;52.034;5.554;2023-04-01T01:44:09;14.63;;;7.03;;
19026;SDS011;9646;52.034;5.554;2023-04-01T01:46:38;13.18;;;7.00;;
19026;SDS011;9646;52.034;5.554;2023-04-01T01:49:05;15.02;;;5.95;;
19026;SDS011;9646;52.034;5.554;2023-04-01T01:51:34;13.30;;;7.43;;
19026;SDS011;9646;52.034;5.554;2023-04-01T01:54:02;15.85;;;7.30;;
19026;SDS011;9646;52.034;5.554;2023-04-01T01:56:29;16.50;;;6.18;;
19026;SDS011;9646;52.034;5.554;2023-04-01T01:58:58;17.60;;;7.10;;
19026;SDS011;9646;52.034;5.554;2023-04-01T02:01:28;15.40;;;7.03;;
19026;SDS011;9646;52.034;5.554;2023-04-01T02:03:56;14.93;;;6.53;;
19026;SDS011;9646;52.034;5.554;2023-04-01T02:06:25;16.02;;;6.78;;
19026;SDS011;9646;52.034;5.554;2023-04-01T02:08:53;12.98;;;5.78;;
19026;SDS011;9646;52.034;5.554;2023-04-01T02:11:26;10.50;;;4.82;;
19026;SDS011;9646;52.034;5.554;2023-04-01T02:13:54;14.00;;;6.40;;
19026;SDS011;9646;52.034;5.554;2023-04-01T02:16:23;16.92;;;6.10;;
19026;SDS011;9646;52.034;5.554;2023-04-01T02:18:52;13.43;;;5.38;;
19026;SDS011;9646;52.034;5.554;2023-04-01T02:21:21;13.27;;;5.70;;
19026;SDS011;9646;52.034;5.554;2023-04-01T02:23:49;12.90;;;5.90;;
19026;SDS011;9646;52.034;5.554;2023-04-01T02:26:17;14.90;;;5.68;;
19026;SDS011;9646;52.034;5.554;2023-04-01T02:28:45;11.10;;;5.35;;
19026;SDS011;9646;52.034;5.554;2023-04-01T02:31:13;13.55;;;4.85;;
19026;SDS011;9646;52.034;5.554;2023-04-01T02:33:41;10.45;;;4.45;;
19026;SDS011;9646;52.034;5.554;2023-04-01T02:36:10;10.32;;;5.15;;
19026;SDS011;9646;52.034;5.554;2023-04-01T02:38:37;9.52;;;4.30;;
19026;SDS011;9646;52.034;5.554;2023-04-01T02:41:05;9.15;;;3.97;;
19026;SDS011;9646;52.034;5.554;2023-04-01T02:43:32;8.68;;;4.30;;
19026;SDS011;9646;52.034;5.554;2023-04-01T02:46:01;7.70;;;3.83;;
19026;SDS011;9646;52.034;5.554;2023-04-01T02:48:28;8.35;;;3.97;;
19026;SDS011;9646;52.034;5.554;2023-04-01T02:50:55;7.43;;;3.28;;
19026;SDS011;9646;52.034;5.554;2023-04-01T02:53:22;6.35;;;3.70;;
19026;SDS011;9646;52.034;5.554;2023-04-01T02:55:49;5.95;;;3.80;;
19026;SDS011;9646;52.034;5.554;2023-04-01T02:58:17;6.82;;;3.80;;
19026;SDS011;9646;52.034;5.554;2023-04-01T03:00:44;6.35;;;3.72;;
19026;SDS011;9646;52.034;5.554;2023-04-01T03:03:13;5.55;;;3.45;;
19026;SDS011;9646;52.034;5.554;2023-04-01T03:05:40;7.80;;;4.05;;
19026;SDS011;9646;52.034;5.554;2023-04-01T03:08:07;6.15;;;3.53;;
19026;SDS011;9646;52.034;5.554;2023-04-01T03:10:35;7.35;;;3.80;;
19026;SDS011;9646;52.034;5.554;2023-04-01T03:13:02;6.05;;;3.00;;
19026;SDS011;9646;52.034;5.554;2023-04-01T03:15:29;6.22;;;3.65;;
19026;SDS011;9646;52.034;5.554;2023-04-01T03:17:56;5.28;;;2.78;;
19026;SDS011;9646;52.034;5.554;2023-04-01T03:20:25;6.32;;;3.38;;
19026;SDS011;9646;52.034;5.554;2023-04-01T03:22:52;5.32;;;3.08;;
19026;SDS011;9646;52.034;5.554;2023-04-01T03:25:19;4.70;;;2.85;;
19026;SDS011;9646;52.034;5.554;2023-04-01T03:27:46;7.13;;;3.47;;
19026;SDS011;9646;52.034;5.554;2023-04-01T03:30:13;5.47;;;3.78;;
19026;SDS011;9646;52.034;5.554;2023-04-01T03:32:40;3.90;;;2.78;;
19026;SDS011;9646;52.034;5.554;2023-04-01T03:35:08;5.05;;;3.67;;
19026;SDS011;9646;52.034;5.554;2023-04-01T03:37:37;5.22;;;4.18;;
19026;SDS011;9646;52.034;5.554;2023-04-01T03:40:04;6.68;;;3.10;;
19026;SDS011;9646;52.034;5.554;2023-04-01T03:42:32;5.63;;;3.63;;
19026;SDS011;9646;52.034;5.554;2023-04-01T03:44:59;5.25;;;3.15;;
19026;SDS011;9646;52.034;5.554;2023-04-01T03:47:27;3.95;;;2.67;;
19026;SDS011;9646;52.034;5.554;2023-04-01T03:49:54;5.60;;;3.28;;
19026;SDS011;9646;52.034;5.554;2023-04-01T03:52:21;4.68;;;3.47;;
19026;SDS011;9646;52.034;5.554;2023-04-01T03:54:50;4.40;;;2.95;;
19026;SDS011;9646;52.034;5.554;2023-04-01T03:57:17;5.68;;;4.03;;
19026;SDS011;9646;52.034;5.554;2023-04-01T03:59:44;5.95;;;3.28;;
19026;SDS011;9646;52.034;5.554;2023-04-01T04:02:11;4.32;;;2.92;;
19026;SDS011;9646;52.034;5.554;2023-04-01T04:04:38;4.63;;;3.50;;
19026;SDS011;9646;52.034;5.554;2023-04-01T04:07:06;4.32;;;3.80;;
19026;SDS011;9646;52.034;5.554;2023-04-01T04:09:33;5.20;;;3.65;;
19026;SDS011;9646;52.034;5.554;2023-04-01T04:12:01;5.50;;;3.58;;
19026;SDS011;9646;52.034;5.554;2023-04-01T04:14:30;4.70;;;3.35;;
19026;SDS011;9646;52.034;5.554;2023-04-01T04:16:57;4.15;;;3.10;;
19026;SDS011;9646;52.034;5.554;2023-04-01T04:19:24;3.60;;;3.30;;
19026;SDS011;9646;52.034;5.554;2023-04-01T04:21:51;3.28;;;2.95;;
19026;SDS011;9646;52.034;5.554;2023-04-01T04:24:18;4.32;;;3.00;;
19026;SDS011;9646;52.034;5.554;2023-04-01T04:26:45;4.53;;;3.08;;
19026;SDS011;9646;52.034;5.554;2023-04-01T04:29:14;4.10;;;3.28;;
19026;SDS011;9646;52.034;5.554;2023-04-01T04:31:41;4.13;;;3.35;;
19026;SDS011;9646;52.034;5.554;2023-04-01T04:34:08;4.28;;;3.10;;
19026;SDS011;9646;52.034;5.554;2023-04-01T04:36:35;4.10;;;3.20;;
19026;SDS011;9646;52.034;5.554;2023-04-01T04:39:02;3.15;;;2.85;;
19026;SDS011;9646;52.034;5.554;2023-04-01T04:41:29;3.38;;;2.85;;
19026;SDS011;9646;52.034;5.554;2023-04-01T04:43:57;3.20;;;2.70;;
19026;SDS011;9646;52.034;5.554;2023-04-01T04:46:25;3.70;;;2.70;;
19026;SDS011;9646;52.034;5.554;2023-04-01T04:48:52;3.70;;;3.30;;
19026;SDS011;9646;52.034;5.554;2023-04-01T04:51:20;3.85;;;3.20;;
19026;SDS011;9646;52.034;5.554;2023-04-01T04:53:47;3.13;;;2.70;;
19026;SDS011;9646;52.034;5.554;2023-04-01T04:56:17;3.22;;;2.85;;
19026;SDS011;9646;52.034;5.554;2023-04-01T04:58:44;3.65;;;2.78;;
19026;SDS011;9646;52.034;5.554;2023-04-01T05:01:12;4.43;;;3.00;;
19026;SDS011;9646;52.034;5.554;2023-04-01T05:03:41;3.83;;;3.40;;
19026;SDS011;9646;52.034;5.554;2023-04-01T05:06:09;3.70;;;3.40;;
19026;SDS011;9646;52.034;5.554;2023-04-01T05:08:36;4.82;;;3.65;;
19026;SDS011;9646;52.034;5.554;2023-04-01T05:11:06;3.88;;;3.33;;
19026;SDS011;9646;52.034;5.554;2023-04-01T05:13:34;5.10;;;4.05;;
19026;SDS011;9646;52.034;5.554;2023-04-01T05:16:01;4.88;;;3.22;;
19026;SDS011;9646;52.034;5.554;2023-04-01T05:18:29;4.20;;;3.45;;
19026;SDS011;9646;52.034;5.554;2023-04-01T05:20:57;5.20;;;4.07;;
19026;SDS011;9646;52.034;5.554;2023-04-01T05:23:24;4.25;;;3.50;;
19026;SDS011;9646;52.034;5.554;2023-04-01T05:25:51;3.88;;;3.20;;
19026;SDS011;9646;52.034;5.554;2023-04-01T05:28:18;3.80;;;3.20;;
19026;SDS011;9646;52.034;5.554;2023-04-01T05:30:45;5.28;;;3.70;;
19026;SDS011;9646;52.034;5.554;2023-04-01T05:33:13;5.35;;;3.92;;
19026;SDS011;9646;52.034;5.554;2023-04-01T05:35:40;4.72;;;3.75;;
19026;SDS011;9646;52.034;5.554;2023-04-01T05:38:09;2.92;;;2.58;;
19026;SDS011;9646;52.034;5.554;2023-04-01T05:40:36;3.13;;;2.83;;
19026;SDS011;9646;52.034;5.554;2023-04-01T05:43:03;5.65;;;3.33;;
19026;SDS011;9646;52.034;5.554;2023-04-01T05:45:30;2.72;;;2.20;;
19026;SDS011;9646;52.034;5.554;2023-04-01T05:47:58;3.40;;;2.88;;
19026;SDS011;9646;52.034;5.554;2023-04-01T05:50:25;4.28;;;3.10;;
19026;SDS011;9646;52.034;5.554;2023-04-01T05:52:53;2.78;;;2.50;;
19026;SDS011;9646;52.034;5.554;2023-04-01T05:55:21;3.38;;;2.83;;
19026;SDS011;9646;52.034;5.554;2023-04-01T05:57:48;3.13;;;2.72;;
19026;SDS011;9646;52.034;5.554;2023-04-01T06:00:15;3.42;;;3.10;;
19026;SDS011;9646;52.034;5.554;2023-04-01T06:02:44;3.63;;;2.90;;
19026;SDS011;9646;52.034;5.554;2023-04-01T06:05:13;3.28;;;2.72;;
19026;SDS011;9646;52.034;5.554;2023-04-01T06:07:41;3.80;;;2.75;;
19026;SDS011;9646;52.034;5.554;2023-04-01T06:10:12;2.60;;;2.40;;
19026;SDS011;9646;52.034;5.554;2023-04-01T06:12:45;3.00;;;2.70;;
19026;SDS011;9646;52.034;5.554;2023-04-01T06:15:18;3.40;;;2.67;;
19026;SDS011;9646;52.034;5.554;2023-04-01T06:17:51;3.97;;;2.83;;
19026;SDS011;9646;52.034;5.554;2023-04-01T06:20:20;3.78;;;2.60;;
19026;SDS011;9646;52.034;5.554;2023-04-01T06:23:02;3.33;;;2.80;;
19026;SDS011;9646;52.034;5.554;2023-04-01T06:25:38;3.55;;;2.83;;
19026;SDS011;9646;52.034;5.554;2023-04-01T06:28:29;4.55;;;3.28;;
19026;SDS011;9646;52.034;5.554;2023-04-01T06:31:03;2.90;;;2.40;;
19026;SDS011;9646;52.034;5.554;2023-04-01T06:33:39;3.50;;;3.20;;
19026;SDS011;9646;52.034;5.554;2023-04-01T06:36:25;3.20;;;2.90;;
19026;SDS011;9646;52.034;5.554;2023-04-01T06:41:56;2.38;;;2.15;;
19026;SDS011;9646;52.034;5.554;2023-04-01T06:44:30;3.30;;;3.00;;
19026;SDS011;9646;52.034;5.554;2023-04-01T06:47:01;2.80;;;2.60;;
19026;SDS011;9646;52.034;5.554;2023-04-01T06:49:33;2.83;;;2.60;;
19026;SDS011;9646;52.034;5.554;2023-04-01T06:52:03;3.35;;;2.95;;
19026;SDS011;9646;52.034;5.554;2023-04-01T06:54:33;4.10;;;2.78;;
19026;SDS011;9646;52.034;5.554;2023-04-01T06:57:02;3.40;;;2.92;;
19026;SDS011;9646;52.034;5.554;2023-04-01T06:59:32;3.20;;;2.72;;
19026;SDS011;9646;52.034;5.554;2023-04-01T07:02:02;3.00;;;2.50;;
19026;SDS011;9646;52.034;5.554;2023-04-01T07:04:33;3.63;;;3.22;;
19026;SDS011;9646;52.034;5.554;2023-04-01T07:07:02;3.10;;;2.72;;
19026;SDS011;9646;52.034;5.554;2023-04-01T07:09:31;2.40;;;2.20;;
19026;SDS011;9646;52.034;5.554;2023-04-01T07:12:00;2.50;;;2.08;;
19026;SDS011;9646;52.034;5.554;2023-04-01T07:14:28;2.58;;;2.20;;
19026;SDS011;9646;52.034;5.554;2023-04-01T07:16:59;2.08;;;1.90;;
19026;SDS011;9646;52.034;5.554;2023-04-01T07:19:31;1.70;;;1.52;;
19026;SDS011;9646;52.034;5.554;2023-04-01T07:22:00;1.50;;;1.40;;
19026;SDS011;9646;52.034;5.554;2023-04-01T07:24:31;1.73;;;1.40;;
19026;SDS011;9646;52.034;5.554;2023-04-01T07:26:59;1.60;;;1.30;;
19026;SDS011;9646;52.034;5.554;2023-04-01T07:29:26;1.60;;;1.50;;
19026;SDS011;9646;52.034;5.554;2023-04-01T07:34:54;1.75;;;1.40;;
19026;SDS011;9646;52.034;5.554;2023-04-01T07:37:26;1.83;;;1.58;;
19026;SDS011;9646;52.034;5.554;2023-04-01T07:39:56;1.60;;;1.50;;
19026;SDS011;9646;52.034;5.554;2023-04-01T07:42:28;1.95;;;1.80;;
19026;SDS011;9646;52.034;5.554;2023-04-01T07:45:02;2.22;;;1.90;;
19026;SDS011;9646;52.034;5.554;2023-04-01T07:50:25;2.67;;;2.47;;
19026;SDS011;9646;52.034;5.554;2023-04-01T07:52:56;3.03;;;2.72;;
19026;SDS011;9646;52.034;5.554;2023-04-01T07:55:28;3.63;;;2.80;;
19026;SDS011;9646;52.034;5.554;2023-04-01T07:57:58;3.20;;;2.65;;
19026;SDS011;9646;52.034;5.554;2023-04-01T08:00:29;2.72;;;2.53;;
19026;SDS011;9646;52.034;5.554;2023-04-01T08:03:02;2.90;;;2.42;;
19026;SDS011;9646;52.034;5.554;2023-04-01T08:05:36;3.15;;;2.60;;
19026;SDS011;9646;52.034;5.554;2023-04-01T08:08:09;3.30;;;3.00;;
19026;SDS011;9646;52.034;5.554;2023-04-01T08:10:40;3.30;;;2.63;;
19026;SDS011;9646;52.034;5.554;2023-04-01T08:13:12;2.42;;;2.22;;
19026;SDS011;9646;52.034;5.554;2023-04-01T08:15:42;3.30;;;2.47;;
19026;SDS011;9646;52.034;5.554;2023-04-01T08:18:17;2.17;;;1.95;;
19026;SDS011;9646;52.034;5.554;2023-04-01T08:20:50;2.78;;;2.58;;
19026;SDS011;9646;52.034;5.554;2023-04-01T08:23:19;2.72;;;2.45;;
19026;SDS011;9646;52.034;5.554;2023-04-01T08:25:50;3.17;;;2.78;;
19026;SDS011;9646;52.034;5.554;2023-04-01T08:28:20;2.50;;;2.10;;
19026;SDS011;9646;52.034;5.554;2023-04-01T08:30:50;2.92;;;2.45;;
19026;SDS011;9646;52.034;5.554;2023-04-01T08:33:21;3.25;;;2.63;;
19026;SDS011;9646;52.034;5.554;2023-04-01T08:35:51;2.25;;;2.05;;
19026;SDS011;9646;52.034;5.554;2023-04-01T08:38:22;3.53;;;2.50;;
19026;SDS011;9646;52.034;5.554;2023-04-01T08:40:54;2.78;;;2.40;;
19026;SDS011;9646;52.034;5.554;2023-04-01T08:43:24;2.80;;;2.50;;
19026;SDS011;9646;52.034;5.554;2023-04-01T08:46:03;3.40;;;2.80;;
19026;SDS011;9646;52.034;5.554;2023-04-01T08:48:41;2.63;;;2.30;;
19026;SDS011;9646;52.034;5.554;2023-04-01T08:54:08;3.53;;;2.90;;
19026;SDS011;9646;52.034;5.554;2023-04-01T08:56:42;3.10;;;2.67;;
19026;SDS011;9646;52.034;5.554;2023-04-01T08:59:17;4.22;;;3.28;;
19026;SDS011;9646;52.034;5.554;2023-04-01T09:04:38;4.90;;;3.42;;
19026;SDS011;9646;52.034;5.554;2023-04-01T09:07:15;4.95;;;3.30;;
19026;SDS011;9646;52.034;5.554;2023-04-01T09:10:00;3.92;;;3.50;;
19026;SDS011;9646;52.034;5.554;2023-04-01T09:12:38;4.03;;;3.38;;
19026;SDS011;9646;52.034;5.554;2023-04-01T09:15:20;5.10;;;4.18;;
19026;SDS011;9646;52.034;5.554;2023-04-01T09:18:08;4.03;;;3.42;;
19026;SDS011;9646;52.034;5.554;2023-04-01T09:20:44;4.00;;;3.55;;
19026;SDS011;9646;52.034;5.554;2023-04-01T09:23:23;3.95;;;3.42;;
19026;SDS011;9646;52.034;5.554;2023-04-01T09:25:59;7.10;;;4.65;;
19026;SDS011;9646;52.034;5.554;2023-04-01T09:28:28;6.30;;;4.35;;
19026;SDS011;9646;52.034;5.554;2023-04-01T09:31:00;5.28;;;4.18;;
19026;SDS011;9646;52.034;5.554;2023-04-01T09:36:21;6.30;;;4.88;;
19026;SDS011;9646;52.034;5.554;2023-04-01T09:38:54;5.95;;;5.35;;
19026;SDS011;9646;52.034;5.554;2023-04-01T09:41:27;6.90;;;5.00;;
19026;SDS011;9646;52.034;5.554;2023-04-01T09:44:00;7.35;;;5.57;;
19026;SDS011;9646;52.034;5.554;2023-04-01T09:46:31;6.35;;;4.80;;
19026;SDS011;9646;52.034;5.554;2023-04-01T09:49:16;6.55;;;5.03;;
19026;SDS011;9646;52.034;5.554;2023-04-01T09:51:50;7.80;;;5.22;;
19026;SDS011;9646;52.034;5.554;2023-04-01T09:54:24;5.30;;;4.43;;
19026;SDS011;9646;52.034;5.554;2023-04-01T10:08:01;4.55;;;3.85;;
19026;SDS011;9646;52.034;5.554;2023-04-01T10:13:26;6.72;;;4.50;;
19026;SDS011;9646;52.034;5.554;2023-04-01T10:16:09;5.93;;;4.97;;
19026;SDS011;9646;52.034;5.554;2023-04-01T10:27:17;7.15;;;5.28;;
19026;SDS011;9646;52.034;5.554;2023-04-01T10:29:51;6.18;;;5.05;;
19026;SDS011;9646;52.034;5.554;2023-04-01T10:32:42;6.03;;;4.53;;
19026;SDS011;9646;52.034;5.554;2023-04-01T10:40:59;6.78;;;5.63;;
19026;SDS011;9646;52.034;5.554;2023-04-01T10:43:49;6.55;;;5.60;;
19026;SDS011;9646;52.034;5.554;2023-04-01T10:46:33;7.15;;;5.70;;
19026;SDS011;9646;52.034;5.554;2023-04-01T10:52:01;7.85;;;4.88;;
19026;SDS011;9646;52.034;5.554;2023-04-01T10:54:43;5.38;;;4.65;;
19026;SDS011;9646;52.034;5.554;2023-04-01T11:00:03;4.93;;;3.78;;
19026;SDS011;9646;52.034;5.554;2023-04-01T11:05:37;4.88;;;3.80;;
19026;SDS011;9646;52.034;5.554;2023-04-01T11:11:03;4.65;;;4.07;;
19026;SDS011;9646;52.034;5.554;2023-04-01T11:19:31;5.68;;;4.53;;
19026;SDS011;9646;52.034;5.554;2023-04-01T11:22:12;5.38;;;4.18;;
19026;SDS011;9646;52.034;5.554;2023-04-01T11:24:46;4.30;;;3.10;;
19026;SDS011;9646;52.034;5.554;2023-04-01T11:27:23;3.38;;;2.88;;
19026;SDS011;9646;52.034;5.554;2023-04-01T11:30:01;4.15;;;3.40;;
19026;SDS011;9646;52.034;5.554;2023-04-01T11:32:33;4.03;;;2.90;;
19026;SDS011;9646;52.034;5.554;2023-04-01T11:35:16;3.78;;;3.38;;
19026;SDS011;9646;52.034;5.554;2023-04-01T11:37:47;3.25;;;2.17;;
19026;SDS011;9646;52.034;5.554;2023-04-01T11:40:19;2.95;;;2.00;;
19026;SDS011;9646;52.034;5.554;2023-04-01T11:42:51;3.15;;;1.70;;
19026;SDS011;9646;52.034;5.554;2023-04-01T11:45:28;2.45;;;1.33;;
19026;SDS011;9646;52.034;5.554;2023-04-01T11:48:03;1.80;;;1.50;;
19026;SDS011;9646;52.034;5.554;2023-04-01T11:50:38;2.38;;;1.40;;
19026;SDS011;9646;52.034;5.554;2023-04-01T11:53:14;1.70;;;1.58;;
19026;SDS011;9646;52.034;5.554;2023-04-01T11:55:46;2.08;;;1.33;;
19026;SDS011;9646;52.034;5.554;2023-04-01T11:58:28;1.95;;;1.48;;
19026;SDS011;9646;52.034;5.554;2023-04-01T12:01:01;1.55;;;1.13;;
19026;SDS011;9646;52.034;5.554;2023-04-01T12:03:36;2.05;;;1.27;;
19026;SDS011;9646;52.034;5.554;2023-04-01T12:06:08;1.58;;;1.20;;
19026;SDS011;9646;52.034;5.554;2023-04-01T12:08:40;2.13;;;1.10;;
19026;SDS011;9646;52.034;5.554;2023-04-01T12:11:10;1.60;;;1.30;;
19026;SDS011;9646;52.034;5.554;2023-04-01T12:13:42;1.50;;;1.25;;
19026;SDS011;9646;52.034;5.554;2023-04-01T12:16:18;1.70;;;1.38;;
19026;SDS011;9646;52.034;5.554;2023-04-01T12:18:48;2.15;;;1.63;;
19026;SDS011;9646;52.034;5.554;2023-04-01T12:21:22;1.80;;;1.30;;
19026;SDS011;9646;52.034;5.554;2023-04-01T12:23:55;2.85;;;2.53;;
19026;SDS011;9646;52.034;5.554;2023-04-01T12:26:35;5.22;;;2.60;;
19026;SDS011;9646;52.034;5.554;2023-04-01T12:29:14;3.78;;;2.13;;
19026;SDS011;9646;52.034;5.554;2023-04-01T12:31:51;2.00;;;1.80;;
19026;SDS011;9646;52.034;5.554;2023-04-01T12:34:32;1.30;;;1.20;;
19026;SDS011;9646;52.034;5.554;2023-04-01T12:37:05;2.08;;;1.58;;
19026;SDS011;9646;52.034;5.554;2023-04-01T12:39:41;2.08;;;1.90;;
19026;SDS011;9646;52.034;5.554;2023-04-01T12:42:13;1.75;;;1.60;;
19026;SDS011;9646;52.034;5.554;2023-04-01T12:44:48;2.00;;;1.90;;
19026;SDS011;9646;52.034;5.554;2023-04-01T12:52:55;3.97;;;2.33;;
19026;SDS011;9646;52.034;5.554;2023-04-01T12:55:35;4.22;;;3.83;;
19026;SDS011;9646;52.034;5.554;2023-04-01T12:58:30;3.30;;;3.00;;
19026;SDS011;9646;52.034;5.554;2023-04-01T13:01:10;4.40;;;4.00;;
19026;SDS011;9646;52.034;5.554;2023-04-01T13:03:52;4.95;;;4.45;;
19026;SDS011;9646;52.034;5.554;2023-04-01T13:06:27;5.30;;;4.50;;
19026;SDS011;9646;52.034;5.554;2023-04-01T13:09:02;5.88;;;4.45;;
19026;SDS011;9646;52.034;5.554;2023-04-01T13:11:35;4.80;;;4.30;;
19026;SDS011;9646;52.034;5.554;2023-04-01T13:14:13;4.43;;;3.95;;
19026;SDS011;9646;52.034;5.554;2023-04-01T13:16:45;4.57;;;4.15;;
19026;SDS011;9646;52.034;5.554;2023-04-01T13:19:16;6.32;;;4.88;;
19026;SDS011;9646;52.034;5.554;2023-04-01T13:21:49;6.95;;;6.10;;
19026;SDS011;9646;52.034;5.554;2023-04-01T13:24:25;7.25;;;5.80;;
19026;SDS011;9646;52.034;5.554;2023-04-01T13:26:57;6.78;;;5.72;;
19026;SDS011;9646;52.034;5.554;2023-04-01T13:29:25;6.80;;;5.40;;
19026;SDS011;9646;52.034;5.554;2023-04-01T13:32:00;7.32;;;6.20;;
19026;SDS011;9646;52.034;5.554;2023-04-01T13:34:32;6.90;;;5.57;;
19026;SDS011;9646;52.034;5.554;2023-04-01T13:37:04;6.93;;;6.22;;
19026;SDS011;9646;52.034;5.554;2023-04-01T13:39:40;6.63;;;5.90;;
19026;SDS011;9646;52.034;5.554;2023-04-01T13:42:12;8.48;;;7.32;;
19026;SDS011;9646;52.034;5.554;2023-04-01T13:44:41;7.60;;;6.22;;
19026;SDS011;9646;52.034;5.554;2023-04-01T13:47:12;6.93;;;5.93;;
19026;SDS011;9646;52.034;5.554;2023-04-01T13:49:49;8.70;;;6.68;;
19026;SDS011;9646;52.034;5.554;2023-04-01T13:58:16;4.22;;;3.60;;
19026;SDS011;9646;52.034;5.554;2023-04-01T14:00:54;4.40;;;3.53;;
19026;SDS011;9646;52.034;5.554;2023-04-01T14:11:43;3.40;;;2.35;;
19026;SDS011;9646;52.034;5.554;2023-04-01T14:14:17;1.95;;;1.75;;
19026;SDS011;9646;52.034;5.554;2023-04-01T14:16:53;2.70;;;2.30;;
19026;SDS011;9646;52.034;5.554;2023-04-01T14:19:26;2.10;;;1.90;;
19026;SDS011;9646;52.034;5.554;2023-04-01T14:21:58;1.90;;;1.77;;
19026;SDS011;9646;52.034;5.554;2023-04-01T14:27:17;2.05;;;1.70;;
19026;SDS011;9646;52.034;5.554;2023-04-01T14:29:57;2.72;;;2.20;;
19026;SDS011;9646;52.034;5.554;2023-04-01T14:32:28;3.35;;;2.75;;
19026;SDS011;9646;52.034;5.554;2023-04-01T14:35:09;5.93;;;3.70;;
19026;SDS011;9646;52.034;5.554;2023-04-01T14:37:47;6.22;;;4.25;;
19026;SDS011;9646;52.034;5.554;2023-04-01T14:40:20;10.82;;;6.68;;
19026;SDS011;9646;52.034;5.554;2023-04-01T14:42:53;19.15;;;10.75;;
19026;SDS011;9646;52.034;5.554;2023-04-01T14:48:15;18.30;;;9.80;;
19026;SDS011;9646;52.034;5.554;2023-04-01T14:50:44;9.27;;;6.53;;
19026;SDS011;9646;52.034;5.554;2023-04-01T14:53:13;20.65;;;11.57;;
19026;SDS011;9646;52.034;5.554;2023-04-01T14:55:48;12.45;;;7.32;;
19026;SDS011;9646;52.034;5.554;2023-04-01T14:58:17;15.68;;;8.50;;
19026;SDS011;9646;52.034;5.554;2023-04-01T15:00:48;21.40;;;11.00;;
19026;SDS011;9646;52.034;5.554;2023-04-01T15:03:20;15.93;;;10.10;;
19026;SDS011;9646;52.034;5.554;2023-04-01T15:05:50;15.27;;;8.10;;
19026;SDS011;9646;52.034;5.554;2023-04-01T15:08:22;12.75;;;8.48;;
19026;SDS011;9646;52.034;5.554;2023-04-01T15:16:23;9.70;;;6.15;;
19026;SDS011;9646;52.034;5.554;2023-04-01T15:18:56;8.77;;;6.32;;
19026;SDS011;9646;52.034;5.554;2023-04-01T15:21:31;8.27;;;6.00;;
19026;SDS011;9646;52.034;5.554;2023-04-01T15:24:06;9.60;;;5.85;;
19026;SDS011;9646;52.034;5.554;2023-04-01T15:26:47;8.88;;;5.18;;
19026;SDS011;9646;52.034;5.554;2023-04-01T15:29:23;7.80;;;5.13;;
19026;SDS011;9646;52.034;5.554;2023-04-01T15:31:53;8.35;;;5.90;;
19026;SDS011;9646;52.034;5.554;2023-04-01T15:34:29;6.60;;;4.43;;
19026;SDS011;9646;52.034;5.554;2023-04-01T15:37:00;8.32;;;4.93;;
19026;SDS011;9646;52.034;5.554;2023-04-01T15:39:31;6.57;;;3.92;;
19026;SDS011;9646;52.034;5.554;2023-04-01T15:42:12;5.65;;;3.53;;
19026;SDS011;9646;52.034;5.554;2023-04-01T15:44:46;3.40;;;3.00;;
19026;SDS011;9646;52.034;5.554;2023-04-01T15:47:29;4.07;;;3.50;;
19026;SDS011;9646;52.034;5.554;2023-04-01T15:50:03;5.32;;;3.30;;
19026;SDS011;9646;52.034;5.554;2023-04-01T15:52:36;5.20;;;3.38;;
19026;SDS011;9646;52.034;5.554;2023-04-01T15:55:15;4.10;;;3.08;;
19026;SDS011;9646;52.034;5.554;2023-04-01T15:57:47;5.20;;;3.50;;
19026;SDS011;9646;52.034;5.554;2023-04-01T16:00:23;4.90;;;3.80;;
19026;SDS011;9646;52.034;5.554;2023-04-01T16:02:53;3.67;;;3.17;;
19026;SDS011;9646;52.034;5.554;2023-04-01T16:05:36;5.30;;;3.28;;
19026;SDS011;9646;52.034;5.554;2023-04-01T16:08:09;4.95;;;3.20;;
19026;SDS011;9646;52.034;5.554;2023-04-01T16:10:44;5.38;;;3.70;;
19026;SDS011;9646;52.034;5.554;2023-04-01T16:13:28;7.38;;;4.93;;
19026;SDS011;9646;52.034;5.554;2023-04-01T16:16:00;7.93;;;4.65;;
19026;SDS011;9646;52.034;5.554;2023-04-01T16:18:34;6.82;;;4.25;;
19026;SDS011;9646;52.034;5.554;2023-04-01T16:21:06;4.78;;;3.80;;
19026;SDS011;9646;52.034;5.554;2023-04-01T16:23:36;4.07;;;3.03;;
19026;SDS011;9646;52.034;5.554;2023-04-01T16:26:06;2.97;;;2.65;;
19026;SDS011;9646;52.034;5.554;2023-04-01T16:28:36;4.15;;;2.60;;
19026;SDS011;9646;52.034;5.554;2023-04-01T16:31:06;2.97;;;2.10;;
19026;SDS011;9646;52.034;5.554;2023-04-01T16:33:35;2.30;;;2.10;;
19026;SDS011;9646;52.034;5.554;2023-04-01T16:36:09;4.13;;;2.53;;
19026;SDS011;9646;52.034;5.554;2023-04-01T16:38:37;3.45;;;2.50;;
19026;SDS011;9646;52.034;5.554;2023-04-01T16:41:07;3.10;;;2.80;;
19026;SDS011;9646;52.034;5.554;2023-04-01T16:43:38;2.83;;;2.22;;
19026;SDS011;9646;52.034;5.554;2023-04-01T16:46:13;2.15;;;1.95;;
19026;SDS011;9646;52.034;5.554;2023-04-01T16:48:45;2.97;;;1.95;;
19026;SDS011;9646;52.034;5.554;2023-04-01T16:51:17;3.10;;;2.13;;
19026;SDS011;9646;52.034;5.554;2023-04-01T16:53:47;2.25;;;1.80;;
19026;SDS011;9646;52.034;5.554;2023-04-01T16:56:16;2.17;;;1.98;;
19026;SDS011;9646;52.034;5.554;2023-04-01T16:58:56;2.42;;;1.83;;
19026;SDS011;9646;52.034;5.554;2023-04-01T17:01:26;2.50;;;1.70;;
19026;SDS011;9646;52.034;5.554;2023-04-01T17:03:57;2.58;;;1.50;;